createdAt,value
2023-01-28T00:00:19.982Z,1.08
2023-01-28T00:02:21.434Z,1.08
2023-01-28T00:04:22.824Z,1.09
2023-01-28T00:06:24.272Z,1.08
2023-01-28T00:08:25.650Z,0.98
2023-01-28T00:10:27.069Z,1.08
2023-01-28T00:12:29.658Z,1.06
2023-01-28T00:14:31.082Z,1.07
2023-01-28T00:16:32.895Z,1.02
2023-01-28T00:18:34.701Z,1.03
2023-01-28T00:20:36.279Z,1.09
2023-01-28T00:22:37.641Z,1.09
2023-01-28T00:24:38.997Z,1.10
2023-01-28T00:26:40.332Z,1.05
2023-01-28T00:28:42.650Z,1.05
2023-01-28T00:30:44.061Z,0.96
2023-01-28T00:32:45.462Z,1.03
2023-01-28T00:34:46.896Z,1.08
2023-01-28T00:39:27.029Z,1.05
2023-01-28T00:41:29.687Z,1.06
2023-01-28T00:43:31.084Z,1.00
2023-01-28T00:45:32.434Z,0.97
2023-01-28T00:47:33.777Z,1.03
2023-01-28T00:49:35.219Z,1.06
2023-01-28T00:51:36.990Z,1.03
2023-01-28T00:53:39.754Z,0.96
2023-01-28T00:55:41.128Z,0.88
2023-01-28T00:57:42.498Z,1.00
2023-01-28T00:59:44.561Z,1.02
2023-01-28T01:01:46.049Z,1.03
2023-01-28T01:03:48.346Z,1.00
2023-01-28T01:05:49.703Z,0.92
2023-01-28T01:07:51.084Z,0.94
2023-01-28T01:09:52.456Z,0.93
2023-01-28T01:11:53.808Z,0.97
2023-01-28T01:13:59.626Z,1.01
2023-01-28T01:16:06.675Z,0.98
2023-01-28T01:18:08.036Z,1.02
2023-01-28T01:20:15.308Z,0.96
2023-01-28T01:22:16.727Z,0.97
2023-01-28T01:24:18.216Z,1.00
2023-01-28T01:26:20.409Z,1.00
2023-01-28T01:28:22.629Z,1.04
2023-01-28T01:30:24.736Z,1.02
2023-01-28T01:32:29.707Z,0.97
2023-01-28T01:34:31.155Z,0.98
2023-01-28T01:36:32.607Z,0.95
2023-01-28T01:38:34.073Z,1.00
2023-01-28T01:40:37.126Z,0.96
2023-01-28T01:42:38.517Z,0.91
2023-01-28T01:45:00.011Z,0.89
2023-01-28T01:47:01.470Z,0.86
2023-01-28T01:49:19.445Z,0.92
2023-01-28T01:51:26.314Z,0.82
2023-01-28T01:53:29.577Z,0.89
2023-01-28T01:55:38.130Z,0.90
2023-01-28T01:57:40.568Z,0.90
2023-01-28T01:59:43.478Z,0.92
2023-01-28T02:01:48.325Z,0.91
2023-01-28T02:04:22.912Z,0.87
2023-01-28T02:06:25.101Z,0.92
2023-01-28T02:08:27.901Z,0.85
2023-01-28T02:10:29.333Z,0.86
2023-01-28T02:12:36.766Z,0.77
2023-01-28T02:14:46.390Z,0.85
2023-01-28T02:16:47.912Z,0.86
2023-01-28T02:18:49.353Z,0.73
2023-01-28T02:21:24.378Z,0.75
2023-01-28T02:24:00.710Z,0.77
2023-01-28T02:26:23.760Z,0.79
2023-01-28T02:28:37.204Z,0.80
2023-01-28T02:30:50.644Z,0.79
2023-01-28T02:32:59.222Z,0.80
2023-01-28T02:35:03.354Z,0.80
2023-01-28T02:37:12.842Z,0.80
2023-01-28T02:39:20.419Z,0.73
2023-01-28T02:41:28.250Z,0.76
2023-01-28T02:43:40.853Z,0.77
2023-01-28T02:46:00.613Z,0.75
2023-01-28T02:48:01.965Z,0.80
2023-01-28T02:50:09.595Z,0.80
2023-01-28T02:52:18.645Z,0.69
2023-01-28T02:54:35.908Z,0.78
2023-01-28T02:56:45.505Z,0.76
2023-01-28T02:59:30.874Z,0.73
2023-01-28T03:01:39.424Z,0.76
2023-01-28T03:03:58.622Z,0.64
2023-01-28T03:06:07.909Z,0.60
2023-01-28T03:08:29.350Z,0.64
2023-01-28T03:10:31.004Z,0.68
2023-01-28T03:12:53.951Z,0.72
2023-01-28T03:15:26.702Z,0.70
2023-01-28T03:17:54.622Z,0.69
2023-01-28T03:20:14.948Z,0.68
2023-01-28T03:22:35.369Z,0.62
2023-01-28T03:25:06.857Z,0.68
2023-01-28T03:27:38.301Z,0.65
2023-01-28T03:30:00.529Z,0.67
2023-01-28T03:32:22.543Z,0.68
2023-01-28T03:34:42.842Z,0.69
2023-01-28T03:36:53.203Z,0.65
2023-01-28T03:38:54.650Z,0.63
2023-01-28T03:41:00.329Z,0.62
2023-01-28T03:43:01.763Z,0.66
2023-01-28T03:45:05.284Z,0.59
2023-01-28T03:47:08.833Z,0.60
2023-01-28T03:49:10.218Z,0.63
2023-01-28T03:51:12.075Z,0.63
2023-01-28T03:53:16.956Z,0.66
2023-01-28T03:55:18.528Z,0.65
2023-01-28T03:57:25.727Z,0.63
2023-01-28T03:59:26.992Z,0.66
2023-01-28T04:01:28.362Z,0.65
2023-01-28T04:03:29.758Z,0.60
2023-01-28T04:05:31.235Z,0.62
2023-01-28T04:07:33.610Z,0.64
2023-01-28T04:09:35.944Z,0.63
2023-01-28T04:11:37.292Z,0.58
2023-01-28T04:13:38.676Z,0.61
2023-01-28T04:15:40.037Z,0.62
2023-01-28T04:17:46.164Z,0.62
2023-01-28T04:19:47.537Z,0.61
2023-01-28T04:21:49.897Z,0.61
2023-01-28T04:23:51.306Z,0.64
2023-01-28T04:25:52.800Z,0.63
2023-01-28T04:27:54.335Z,0.62
2023-01-28T04:29:55.721Z,0.61
2023-01-28T04:31:57.197Z,0.60
2023-01-28T04:33:58.677Z,0.62
2023-01-28T04:36:00.075Z,0.61
2023-01-28T04:38:01.585Z,0.59
2023-01-28T04:40:03.189Z,0.60
2023-01-28T04:42:04.784Z,0.54
2023-01-28T04:44:06.286Z,0.56
2023-01-28T04:46:07.807Z,0.55
2023-01-28T04:48:09.276Z,0.58
2023-01-28T04:50:10.680Z,0.56
2023-01-28T04:52:12.065Z,0.57
2023-01-28T04:54:13.417Z,0.56
2023-01-28T04:56:14.866Z,0.54
2023-01-28T04:58:16.264Z,0.42
2023-01-28T05:00:18.215Z,0.40
2023-01-28T05:02:19.717Z,0.32
2023-01-28T05:04:21.268Z,0.43
2023-01-28T05:06:22.635Z,0.36
2023-01-28T05:08:24.028Z,0.45
2023-01-28T05:10:27.173Z,0.43
2023-01-28T05:12:29.635Z,0.40
2023-01-28T05:14:30.986Z,0.39
2023-01-28T05:16:34.060Z,0.41
2023-01-28T05:18:35.440Z,0.41
2023-01-28T05:20:36.811Z,0.44
2023-01-28T05:22:38.491Z,0.46
2023-01-28T05:24:39.883Z,0.44
2023-01-28T05:26:41.492Z,0.47
2023-01-28T05:28:42.877Z,0.44
2023-01-28T05:30:44.321Z,0.37
2023-01-28T05:32:46.133Z,0.40
2023-01-28T05:34:47.709Z,0.31
2023-01-28T05:36:49.072Z,0.33
2023-01-28T05:38:50.589Z,0.30
2023-01-28T05:40:51.955Z,0.33
2023-01-28T05:42:53.385Z,0.33
2023-01-28T05:44:54.765Z,0.26
2023-01-28T05:46:56.168Z,0.32
2023-01-28T05:48:57.581Z,0.35
2023-01-28T05:51:00.019Z,0.33
2023-01-28T05:53:01.473Z,0.33
2023-01-28T05:55:03.061Z,0.31
2023-01-28T05:57:04.517Z,0.28
2023-01-28T05:59:05.871Z,0.19
2023-01-28T06:01:07.263Z,0.11
2023-01-28T06:03:08.908Z,0.13
2023-01-28T06:05:10.732Z,0.15
2023-01-28T06:07:13.268Z,0.13
2023-01-28T06:09:14.663Z,0.15
2023-01-28T06:11:16.488Z,0.05
2023-01-28T06:13:18.497Z,-0.01
2023-01-28T06:15:19.972Z,-0.01
2023-01-28T06:17:21.357Z,0.04
2023-01-28T06:19:22.725Z,0.06
2023-01-28T06:21:24.132Z,0.04
2023-01-28T06:23:25.495Z,-0.01
2023-01-28T06:25:27.181Z,0.04
2023-01-28T06:27:28.725Z,0.09
2023-01-28T06:29:30.271Z,0.02
2023-01-28T06:31:31.648Z,0.03
2023-01-28T06:33:33.253Z,0.05
2023-01-28T06:35:35.771Z,0.01
2023-01-28T06:37:37.160Z,0.01
2023-01-28T06:39:38.500Z,0.03
2023-01-28T06:41:39.915Z,0.04
2023-01-28T06:43:41.257Z,0.04
2023-01-28T06:45:42.653Z,-0.02
2023-01-28T06:47:44.011Z,-0.02
2023-01-28T06:49:45.523Z,-0.03
2023-01-28T06:51:46.876Z,0.00
2023-01-28T06:53:48.282Z,-0.04
2023-01-28T06:55:49.894Z,-0.06
2023-01-28T06:57:51.258Z,-0.06
2023-01-28T06:59:52.625Z,-0.04
2023-01-28T07:01:54.024Z,-0.05
2023-01-28T07:03:56.845Z,-0.08
2023-01-28T07:05:58.227Z,-0.04
2023-01-28T07:07:59.629Z,-0.03
2023-01-28T07:10:01.174Z,-0.04
2023-01-28T07:12:05.198Z,-0.06
2023-01-28T07:14:06.577Z,-0.03
2023-01-28T07:16:08.030Z,-0.02
2023-01-28T07:18:09.416Z,-0.05
2023-01-28T07:20:13.728Z,-0.02
2023-01-28T07:22:15.364Z,-0.02
2023-01-28T07:24:16.850Z,-0.07
2023-01-28T07:26:20.018Z,-0.08
2023-01-28T07:28:21.583Z,-0.09
2023-01-28T07:30:24.105Z,-0.07
2023-01-28T07:32:29.483Z,-0.07
2023-01-28T07:34:30.865Z,-0.06
2023-01-28T07:36:32.220Z,-0.03
2023-01-28T07:38:33.738Z,-0.02
2023-01-28T07:40:35.172Z,0.00
2023-01-28T07:42:36.535Z,-0.04
2023-01-28T07:44:38.598Z,-0.07
2023-01-28T07:46:39.963Z,-0.03
2023-01-28T07:48:41.329Z,0.00
2023-01-28T07:50:42.859Z,0.00
2023-01-28T07:52:45.754Z,0.03
2023-01-28T07:54:47.153Z,-0.05
2023-01-28T07:56:48.568Z,-0.02
2023-01-28T07:58:50.762Z,-0.05
2023-01-28T08:00:57.367Z,-0.01
2023-01-28T08:03:07.780Z,-0.04
2023-01-28T08:05:09.460Z,-0.02
2023-01-28T08:07:10.851Z,0.00
2023-01-28T08:09:12.252Z,0.02
2023-01-28T08:11:13.622Z,-0.18
2023-01-28T08:13:16.521Z,-0.07
2023-01-28T08:15:17.919Z,-0.05
2023-01-28T08:17:19.306Z,-0.08
2023-01-28T08:19:21.781Z,-0.05
2023-01-28T08:21:23.265Z,0.04
2023-01-28T08:23:26.857Z,0.10
2023-01-28T08:25:28.261Z,0.10
2023-01-28T08:27:29.641Z,0.08
2023-01-28T08:29:31.027Z,0.15
2023-01-28T08:31:36.176Z,0.17
2023-01-28T08:33:37.763Z,0.20
2023-01-28T08:35:39.816Z,0.23
2023-01-28T08:37:41.185Z,0.27
2023-01-28T08:39:44.300Z,0.24
2023-01-28T08:41:46.925Z,0.24
2023-01-28T08:43:48.803Z,0.08
2023-01-28T08:45:50.519Z,0.23
2023-01-28T08:47:54.530Z,0.27
2023-01-28T08:49:55.872Z,0.35
2023-01-28T08:51:57.274Z,0.32
2023-01-28T08:53:58.606Z,0.36
2023-01-28T08:56:00.363Z,0.36
2023-01-28T08:58:03.357Z,0.42
2023-01-28T09:00:06.131Z,0.38
2023-01-28T09:02:10.585Z,0.36
2023-01-28T09:04:15.597Z,0.38
2023-01-28T09:06:17.134Z,0.38
2023-01-28T09:08:18.521Z,0.46
2023-01-28T09:10:22.533Z,0.40
2023-01-28T09:12:24.109Z,0.45
2023-01-28T09:14:25.544Z,0.51
2023-01-28T09:16:27.224Z,0.36
2023-01-28T09:18:28.604Z,0.38
2023-01-28T09:20:30.286Z,0.23
2023-01-28T09:22:33.001Z,0.34
2023-01-28T09:24:34.378Z,0.44
2023-01-28T09:26:35.744Z,0.47
2023-01-28T09:28:38.438Z,0.53
2023-01-28T09:30:40.082Z,0.56
2023-01-28T09:32:41.577Z,0.59
2023-01-28T09:34:44.405Z,0.61
2023-01-28T09:36:46.051Z,0.57
2023-01-28T09:38:47.432Z,0.51
2023-01-28T09:40:48.876Z,0.62
2023-01-28T09:43:05.076Z,0.64
2023-01-28T09:45:09.810Z,0.67
2023-01-28T09:47:46.351Z,0.70
2023-01-28T09:49:51.563Z,0.59
2023-01-28T09:51:55.748Z,0.74
2023-01-28T09:54:03.564Z,0.78
2023-01-28T09:56:12.526Z,0.88
2023-01-28T09:58:17.691Z,0.86
2023-01-28T10:00:23.000Z,0.84
2023-01-28T10:02:36.664Z,0.74
2023-01-28T10:04:59.188Z,0.79
2023-01-28T10:07:27.734Z,0.90
2023-01-28T10:09:45.544Z,0.92
2023-01-28T10:12:26.285Z,0.96
2023-01-28T10:14:45.174Z,1.10
2023-01-28T10:17:07.168Z,1.08
2023-01-28T10:19:30.117Z,1.11
2023-01-28T10:21:39.086Z,1.03
2023-01-28T10:23:58.394Z,1.04
2023-01-28T10:26:03.695Z,1.04
2023-01-28T10:28:14.860Z,1.07
2023-01-28T10:30:27.978Z,1.11
2023-01-28T10:32:34.704Z,0.91
2023-01-28T10:34:37.240Z,1.05
2023-01-28T10:36:38.982Z,0.95
2023-01-28T10:38:40.464Z,0.96
2023-01-28T10:40:43.333Z,1.05
2023-01-28T10:42:45.714Z,1.15
2023-01-28T10:44:47.855Z,1.17
2023-01-28T10:46:50.616Z,1.19
2023-01-28T10:48:57.427Z,1.16
2023-01-28T10:51:02.482Z,1.09
2023-01-28T10:53:05.852Z,1.03
2023-01-28T10:55:14.483Z,1.06
2023-01-28T10:57:18.920Z,1.18
2023-01-28T10:59:27.699Z,1.24
2023-01-28T11:01:47.691Z,1.19
2023-01-28T11:03:55.282Z,1.11
2023-01-28T11:05:58.504Z,1.24
2023-01-28T11:08:19.721Z,1.27
2023-01-28T11:10:33.796Z,0.97
2023-01-28T11:12:35.219Z,0.80
2023-01-28T11:14:36.654Z,0.93
2023-01-28T11:16:40.143Z,0.78
2023-01-28T11:18:48.039Z,1.05
2023-01-28T11:20:53.426Z,1.05
2023-01-28T11:22:55.544Z,1.13
2023-01-28T11:24:57.092Z,1.07
2023-01-28T11:27:09.453Z,0.90
2023-01-28T11:29:30.642Z,1.07
2023-01-28T11:31:41.699Z,1.08
2023-01-28T11:34:00.439Z,1.21
2023-01-28T11:36:13.765Z,1.15
2023-01-28T11:38:19.416Z,1.15
2023-01-28T11:40:21.921Z,1.09
2023-01-28T11:42:24.104Z,1.09
2023-01-28T11:44:27.072Z,1.17
2023-01-28T11:46:53.385Z,1.22
2023-01-28T11:49:26.986Z,1.28
2023-01-28T11:51:47.403Z,1.31
2023-01-28T11:54:05.211Z,1.32
2023-01-28T11:56:16.961Z,1.28
2023-01-28T11:58:40.625Z,1.21
2023-01-28T12:01:02.048Z,1.26
2023-01-28T12:03:27.977Z,1.35
2023-01-28T12:06:06.858Z,1.31
2023-01-28T12:08:23.147Z,1.33
2023-01-28T12:10:52.206Z,1.24
2023-01-28T12:13:05.653Z,1.33
2023-01-28T12:15:46.832Z,1.35
2023-01-28T12:18:29.660Z,1.33
2023-01-28T12:20:47.446Z,1.17
2023-01-28T12:22:54.656Z,1.11
2023-01-28T12:25:14.792Z,1.17
2023-01-28T12:27:38.599Z,1.28
2023-01-28T12:29:54.837Z,1.27
2023-01-28T12:32:08.463Z,1.34
2023-01-28T12:34:21.792Z,1.26
2023-01-28T12:36:47.729Z,1.48
2023-01-28T12:39:02.065Z,1.58
2023-01-28T12:41:22.170Z,1.55
2023-01-28T12:43:23.545Z,1.46
2023-01-28T12:45:33.469Z,1.61
2023-01-28T12:47:39.421Z,1.63
2023-01-28T12:49:53.798Z,1.56
2023-01-28T12:51:55.411Z,1.58
2023-01-28T12:54:15.110Z,1.75
2023-01-28T12:56:32.006Z,1.81
2023-01-28T12:58:43.199Z,1.83
2023-01-28T13:00:54.808Z,1.93
2023-01-28T13:03:18.423Z,2.14
2023-01-28T13:05:31.214Z,2.18
2023-01-28T13:07:39.362Z,2.07
2023-01-28T13:09:49.929Z,1.82
2023-01-28T13:11:54.339Z,1.77
2023-01-28T13:13:55.790Z,1.93
2023-01-28T13:15:57.762Z,1.99
2023-01-28T13:18:02.502Z,2.14
2023-01-28T13:20:15.638Z,2.29
2023-01-28T13:22:35.078Z,1.97
2023-01-28T13:24:36.519Z,2.20
2023-01-28T13:26:40.995Z,2.42
2023-01-28T13:28:42.525Z,2.45
2023-01-28T13:30:49.842Z,2.53
2023-01-28T13:33:03.287Z,2.63
2023-01-28T13:35:07.980Z,2.70
2023-01-28T13:37:32.739Z,2.91
2023-01-28T13:39:35.784Z,2.80
2023-01-28T13:41:48.858Z,2.84
2023-01-28T13:43:50.314Z,2.63
2023-01-28T13:46:03.639Z,2.78
2023-01-28T13:48:30.855Z,2.92
2023-01-28T13:50:39.357Z,2.97
2023-01-28T13:52:49.181Z,3.05
2023-01-28T13:54:50.526Z,2.75
2023-01-28T13:57:01.265Z,2.90
2023-01-28T13:59:21.165Z,2.86
2023-01-28T14:01:43.714Z,2.87
2023-01-28T14:04:15.652Z,2.91
2023-01-28T14:06:24.004Z,2.77
2023-01-28T14:08:54.237Z,2.90
2023-01-28T14:11:24.542Z,2.84
2023-01-28T14:13:25.885Z,2.74
2023-01-28T14:15:49.238Z,2.47
2023-01-28T14:17:56.305Z,2.43
2023-01-28T14:19:59.720Z,2.47
2023-01-28T14:22:09.771Z,2.45
2023-01-28T14:24:16.785Z,2.41
2023-01-28T14:26:37.040Z,2.06
2023-01-28T14:28:56.263Z,1.93
2023-01-28T14:31:09.118Z,1.90
2023-01-28T14:33:12.187Z,1.89
2023-01-28T14:35:20.163Z,1.91
2023-01-28T14:37:25.863Z,1.88
2023-01-28T14:39:33.506Z,1.92
2023-01-28T14:41:35.178Z,1.70
2023-01-28T14:43:38.001Z,1.82
2023-01-28T14:45:48.649Z,1.78
2023-01-28T14:48:00.311Z,1.89
2023-01-28T14:50:18.300Z,1.81
2023-01-28T14:52:42.813Z,1.82
2023-01-28T14:55:19.588Z,1.83
2023-01-28T14:57:44.886Z,1.93
2023-01-28T14:59:51.219Z,1.93
2023-01-28T15:01:56.755Z,2.03
2023-01-28T15:03:58.319Z,2.03
2023-01-28T15:06:04.136Z,2.00
2023-01-28T15:08:05.915Z,1.89
2023-01-28T15:10:16.528Z,1.77
2023-01-28T15:12:18.368Z,1.61
2023-01-28T15:14:26.817Z,1.44
2023-01-28T15:16:31.320Z,1.28
2023-01-28T15:18:42.337Z,1.28
2023-01-28T15:20:46.197Z,1.30
2023-01-28T15:22:47.765Z,1.24
2023-01-28T15:24:49.247Z,1.17
2023-01-28T15:26:51.115Z,1.04
2023-01-28T15:28:55.550Z,1.04
2023-01-28T15:30:59.469Z,1.07
2023-01-28T15:33:14.209Z,0.72
2023-01-28T15:35:16.214Z,0.78
2023-01-28T15:37:18.931Z,0.72
2023-01-28T15:39:22.711Z,0.61
2023-01-28T15:41:28.977Z,0.66
2023-01-28T15:43:35.182Z,0.62
2023-01-28T15:45:36.642Z,0.57
2023-01-28T15:47:38.193Z,0.55
2023-01-28T15:49:45.228Z,0.47
2023-01-28T15:51:53.539Z,0.30
2023-01-28T15:54:06.758Z,0.27
2023-01-28T15:56:11.461Z,0.16
2023-01-28T15:58:33.430Z,0.18
2023-01-28T16:00:34.970Z,0.13
2023-01-28T16:02:43.684Z,0.08
2023-01-28T16:04:56.934Z,0.02
2023-01-28T16:07:04.345Z,-0.04
2023-01-28T16:09:15.682Z,-0.16
2023-01-28T16:11:33.674Z,-0.17
2023-01-28T16:13:36.645Z,-0.22
2023-01-28T16:15:39.646Z,-0.21
2023-01-28T16:17:47.227Z,-0.30
2023-01-28T16:19:58.795Z,-0.32
2023-01-28T16:22:01.470Z,-0.34
2023-01-28T16:24:07.553Z,-0.41
2023-01-28T16:26:24.282Z,-0.42
2023-01-28T16:28:25.948Z,-0.48
2023-01-28T16:30:28.177Z,-0.54
2023-01-28T16:32:35.622Z,-0.58
2023-01-28T16:34:37.272Z,-0.63
2023-01-28T16:36:39.534Z,-0.65
2023-01-28T16:38:41.063Z,-0.69
2023-01-28T16:40:46.873Z,-0.75
2023-01-28T16:42:48.999Z,-0.78
2023-01-28T16:44:50.509Z,-0.84
2023-01-28T16:46:51.998Z,-0.86
2023-01-28T16:48:53.935Z,-0.89
2023-01-28T16:50:55.512Z,-0.93
2023-01-28T16:52:58.030Z,-0.98
2023-01-28T16:54:59.457Z,-1.01
2023-01-28T16:57:01.021Z,-1.06
2023-01-28T16:59:02.589Z,-1.08
2023-01-28T17:01:04.104Z,-1.13
2023-01-28T17:03:06.029Z,-1.17
2023-01-28T17:05:08.112Z,-1.20
2023-01-28T17:07:09.558Z,-1.25
2023-01-28T17:09:14.669Z,-1.27
2023-01-28T17:11:16.087Z,-1.29
2023-01-28T17:13:17.452Z,-1.32
2023-01-28T17:15:19.372Z,-1.35
2023-01-28T17:17:21.453Z,-1.43
2023-01-28T17:19:22.844Z,-1.42
2023-01-28T17:21:24.290Z,-1.45
2023-01-28T17:23:26.197Z,-1.55
2023-01-28T17:25:27.555Z,-1.59
2023-01-28T17:27:28.921Z,-1.57
2023-01-28T17:29:30.259Z,-1.55
2023-01-28T17:31:31.938Z,-1.58
2023-01-28T17:33:33.737Z,-1.63
2023-01-28T17:35:37.235Z,-1.63
2023-01-28T17:37:38.948Z,-1.67
2023-01-28T17:39:40.400Z,-1.71
2023-01-28T17:41:42.087Z,-1.72
2023-01-28T17:43:44.166Z,-1.78
2023-01-28T17:45:48.500Z,-1.82
2023-01-28T17:47:50.325Z,-1.83
2023-01-28T17:49:52.274Z,-1.84
2023-01-28T17:51:54.077Z,-1.86
2023-01-28T17:53:56.231Z,-1.90
2023-01-28T17:55:57.817Z,-1.89
2023-01-28T17:57:59.311Z,-1.90
2023-01-28T18:00:01.219Z,-1.93
2023-01-28T18:02:03.156Z,-1.95
2023-01-28T18:04:04.766Z,-1.96
2023-01-28T18:06:07.261Z,-2.00
2023-01-28T18:08:09.416Z,-2.06
2023-01-28T18:10:12.623Z,-2.09
2023-01-28T18:12:15.876Z,-2.08
2023-01-28T18:14:17.232Z,-2.09
2023-01-28T18:18:46.917Z,-2.15
2023-01-28T18:20:59.772Z,-2.15
2023-01-28T18:23:01.858Z,-2.16
2023-01-28T18:25:03.923Z,-2.19
2023-01-28T18:27:05.696Z,-2.17
2023-01-28T18:29:07.183Z,-2.22
2023-01-28T18:31:08.694Z,-2.25
2023-01-28T18:33:10.155Z,-2.29
2023-01-28T18:35:12.516Z,-2.33
2023-01-28T18:37:13.992Z,-2.32
2023-01-28T18:39:22.356Z,-2.33
2023-01-28T18:41:23.727Z,-2.37
2023-01-28T18:43:26.504Z,-2.39
2023-01-28T18:45:28.333Z,-2.42
2023-01-28T18:47:29.777Z,-2.44
2023-01-28T18:49:31.647Z,-2.49
2023-01-28T18:51:33.129Z,-2.50
2023-01-28T18:53:34.859Z,-2.53
2023-01-28T18:55:36.201Z,-2.53
2023-01-28T18:57:38.878Z,-2.55
2023-01-28T18:59:40.233Z,-2.56
2023-01-28T19:01:43.675Z,-2.60
2023-01-28T19:03:45.025Z,-2.63
2023-01-28T19:05:46.779Z,-2.66
2023-01-28T19:07:48.182Z,-2.64
2023-01-28T19:09:50.247Z,-2.67
2023-01-28T19:11:51.790Z,-2.71
2023-01-28T19:13:53.539Z,-2.73
2023-01-28T19:15:55.955Z,-2.76
2023-01-28T19:17:57.684Z,-2.78
2023-01-28T19:19:59.033Z,-2.79
2023-01-28T19:22:00.850Z,-2.82
2023-01-28T19:24:09.573Z,-2.84
2023-01-28T19:26:11.000Z,-2.85
2023-01-28T19:28:12.728Z,-2.87
2023-01-28T19:30:14.582Z,-2.89
2023-01-28T19:32:19.570Z,-2.91
2023-01-28T19:34:21.437Z,-2.93
2023-01-28T19:36:25.955Z,-2.97
2023-01-28T19:38:27.982Z,-2.99
2023-01-28T19:40:30.738Z,-3.00
2023-01-28T19:42:32.121Z,-3.05
2023-01-28T19:47:02.239Z,-3.10
2023-01-28T19:49:06.184Z,-3.10
2023-01-28T19:51:08.813Z,-3.13
2023-01-28T19:53:10.335Z,-3.14
2023-01-28T19:55:12.933Z,-3.18
2023-01-28T19:57:14.935Z,-3.18
2023-01-28T19:59:17.055Z,-3.21
2023-01-28T20:01:21.251Z,-3.22
2023-01-28T20:03:22.644Z,-3.25
2023-01-28T20:05:24.070Z,-3.25
2023-01-28T20:07:25.419Z,-3.24
2023-01-28T20:09:27.213Z,-3.23
2023-01-28T20:11:29.088Z,-3.21
2023-01-28T20:13:32.585Z,-3.17
2023-01-28T20:15:34.440Z,-3.21
2023-01-28T20:17:36.595Z,-3.24
2023-01-28T20:19:38.381Z,-3.26
2023-01-28T20:21:40.594Z,-3.22
2023-01-28T20:23:42.378Z,-3.28
2023-01-28T20:25:44.195Z,-3.28
2023-01-28T20:27:48.208Z,-3.33
2023-01-28T20:29:49.865Z,-3.36
2023-01-28T20:32:09.321Z,-3.38
2023-01-28T20:34:16.320Z,-3.39
2023-01-28T20:36:18.108Z,-3.41
2023-01-28T20:38:20.260Z,-3.43
2023-01-28T20:40:21.642Z,-3.44
2023-01-28T20:42:23.684Z,-3.44
2023-01-28T20:44:26.593Z,-3.45
2023-01-28T20:46:33.273Z,-3.45
2023-01-28T20:48:35.089Z,-3.50
2023-01-28T20:50:36.487Z,-3.43
2023-01-28T20:52:37.900Z,-3.47
2023-01-28T20:54:39.307Z,-3.50
2023-01-28T20:56:41.025Z,-3.53
2023-01-28T20:58:44.094Z,-3.55
2023-01-28T21:00:46.638Z,-3.57
2023-01-28T21:02:48.062Z,-3.59
2023-01-28T21:04:49.731Z,-3.61
2023-01-28T21:06:51.160Z,-3.64
2023-01-28T21:08:53.133Z,-3.66
2023-01-28T21:10:54.978Z,-3.62
2023-01-28T21:12:56.943Z,-3.63
2023-01-28T21:14:58.713Z,-3.65
2023-01-28T21:17:00.788Z,-3.60
2023-01-28T21:19:02.298Z,-3.57
2023-01-28T21:21:05.981Z,-3.64
2023-01-28T21:23:07.373Z,-3.64
2023-01-28T21:25:09.093Z,-3.65
2023-01-28T21:27:10.542Z,-3.67
2023-01-28T21:29:14.535Z,-3.67
2023-01-28T21:31:18.477Z,-3.66
2023-01-28T21:33:19.874Z,-3.69
2023-01-28T21:35:21.307Z,-3.68
2023-01-28T21:37:22.723Z,-3.66
2023-01-28T21:41:49.575Z,-3.74
2023-01-28T21:43:53.753Z,-3.75
2023-01-28T21:45:56.212Z,-3.69
2023-01-28T21:47:57.924Z,-3.69
2023-01-28T21:50:00.651Z,-3.75
2023-01-28T21:52:02.093Z,-3.75
2023-01-28T21:54:06.209Z,-3.78
2023-01-28T21:56:09.864Z,-3.77
2023-01-28T21:58:30.029Z,-3.82
2023-01-28T22:00:31.411Z,-3.84
2023-01-28T22:02:33.191Z,-3.85
2023-01-28T22:04:40.732Z,-3.85
2023-01-28T22:06:42.949Z,-3.87
2023-01-28T22:08:45.133Z,-3.84
2023-01-28T22:10:46.467Z,-3.81
2023-01-28T22:12:48.527Z,-3.80
2023-01-28T22:14:50.280Z,-3.84
2023-01-28T22:16:51.885Z,-3.83
2023-01-28T22:18:53.499Z,-3.86
2023-01-28T22:21:03.661Z,-3.88
2023-01-28T22:23:05.387Z,-3.90
2023-01-28T22:25:07.373Z,-3.93
2023-01-28T22:27:09.498Z,-3.95
2023-01-28T22:29:12.300Z,-3.95
2023-01-28T22:31:15.991Z,-3.97
2023-01-28T22:33:17.896Z,-4.00
2023-01-28T22:35:19.776Z,-4.00
2023-01-28T22:37:21.522Z,-4.04
2023-01-28T22:39:22.995Z,-4.03
2023-01-28T22:41:24.478Z,-4.07
2023-01-28T22:43:26.491Z,-4.07
2023-01-28T22:45:28.165Z,-4.09
2023-01-28T22:47:29.555Z,-4.11
2023-01-28T22:49:31.507Z,-4.12
2023-01-28T22:51:35.108Z,-4.14
2023-01-28T22:53:36.536Z,-4.15
2023-01-28T22:55:40.043Z,-4.16
2023-01-28T22:57:41.496Z,-4.18
2023-01-28T22:59:51.193Z,-4.19
2023-01-28T23:01:59.985Z,-4.21
2023-01-28T23:04:01.576Z,-4.24
2023-01-28T23:06:04.860Z,-4.24
2023-01-28T23:08:12.834Z,-4.27
2023-01-28T23:10:14.868Z,-4.26
2023-01-28T23:12:16.860Z,-4.28
2023-01-28T23:14:36.797Z,-4.29
2023-01-28T23:16:57.172Z,-4.32
2023-01-28T23:19:17.028Z,-4.33
2023-01-28T23:21:38.493Z,-4.33
2023-01-28T23:23:58.252Z,-4.34
2023-01-28T23:26:00.167Z,-4.33
2023-01-28T23:28:01.604Z,-4.32
2023-01-28T23:30:04.254Z,-4.35
2023-01-28T23:32:12.247Z,-4.36
2023-01-28T23:34:16.156Z,-4.34
2023-01-28T23:36:18.683Z,-4.37
2023-01-28T23:38:20.280Z,-4.37
2023-01-28T23:40:24.518Z,-4.36
2023-01-28T23:42:25.958Z,-4.38
2023-01-28T23:44:28.118Z,-4.41
2023-01-28T23:46:38.923Z,-4.41
2023-01-28T23:48:41.030Z,-4.43
2023-01-28T23:50:42.442Z,-4.45
2023-01-28T23:52:43.824Z,-4.47
2023-01-28T23:54:45.330Z,-4.48
2023-01-28T23:56:46.742Z,-4.51
2023-01-28T23:58:48.190Z,-4.53
